sensor_id;sensor_type;location;lat;lon;timestamp;P1;durP1;ratioP1;P2;durP2;ratioP2
5682;SDS011;2864;49.220;8.654;2023-02-01T00:00:22;6.03;;;4.37;;
5682;SDS011;2864;49.220;8.654;2023-02-01T00:02:48;5.20;;;3.80;;
5682;SDS011;2864;49.220;8.654;2023-02-01T00:05:13;4.70;;;3.87;;
5682;SDS011;2864;49.220;8.654;2023-02-01T00:07:39;6.50;;;4.50;;
5682;SDS011;2864;49.220;8.654;2023-02-01T00:10:06;6.97;;;3.70;;
5682;SDS011;2864;49.220;8.654;2023-02-01T00:12:32;6.83;;;4.57;;
5682;SDS011;2864;49.220;8.654;2023-02-01T00:14:58;8.03;;;3.97;;
5682;SDS011;2864;49.220;8.654;2023-02-01T00:17:24;6.50;;;4.33;;
5682;SDS011;2864;49.220;8.654;2023-02-01T00:19:50;6.90;;;4.00;;
5682;SDS011;2864;49.220;8.654;2023-02-01T00:22:16;4.90;;;3.83;;
5682;SDS011;2864;49.220;8.654;2023-02-01T00:24:42;6.13;;;4.07;;
5682;SDS011;2864;49.220;8.654;2023-02-01T00:27:07;5.20;;;3.87;;
5682;SDS011;2864;49.220;8.654;2023-02-01T00:29:33;6.00;;;3.60;;
5682;SDS011;2864;49.220;8.654;2023-02-01T00:31:59;4.90;;;3.50;;
5682;SDS011;2864;49.220;8.654;2023-02-01T00:34:25;4.97;;;3.77;;
5682;SDS011;2864;49.220;8.654;2023-02-01T00:36:51;4.83;;;3.37;;
5682;SDS011;2864;49.220;8.654;2023-02-01T00:39:17;5.53;;;3.57;;
5682;SDS011;2864;49.220;8.654;2023-02-01T00:41:43;4.93;;;3.70;;
5682;SDS011;2864;49.220;8.654;2023-02-01T00:44:09;6.90;;;3.90;;
5682;SDS011;2864;49.220;8.654;2023-02-01T00:46:36;5.47;;;3.80;;
5682;SDS011;2864;49.220;8.654;2023-02-01T00:49:02;6.00;;;4.03;;
5682;SDS011;2864;49.220;8.654;2023-02-01T00:51:34;8.07;;;3.87;;
5682;SDS011;2864;49.220;8.654;2023-02-01T00:54:00;5.30;;;3.93;;
5682;SDS011;2864;49.220;8.654;2023-02-01T00:56:28;5.00;;;3.70;;
5682;SDS011;2864;49.220;8.654;2023-02-01T00:58:54;6.50;;;4.07;;
5682;SDS011;2864;49.220;8.654;2023-02-01T01:01:25;7.27;;;4.00;;
5682;SDS011;2864;49.220;8.654;2023-02-01T01:03:52;5.23;;;4.03;;
5682;SDS011;2864;49.220;8.654;2023-02-01T01:06:23;4.93;;;4.10;;
5682;SDS011;2864;49.220;8.654;2023-02-01T01:08:54;6.43;;;3.80;;
5682;SDS011;2864;49.220;8.654;2023-02-01T01:11:23;5.23;;;4.17;;
5682;SDS011;2864;49.220;8.654;2023-02-01T01:13:52;5.70;;;3.73;;
5682;SDS011;2864;49.220;8.654;2023-02-01T01:16:19;5.50;;;3.70;;
5682;SDS011;2864;49.220;8.654;2023-02-01T01:18:45;5.03;;;3.67;;
5682;SDS011;2864;49.220;8.654;2023-02-01T01:21:12;5.13;;;3.53;;
5682;SDS011;2864;49.220;8.654;2023-02-01T01:23:38;5.03;;;4.20;;
5682;SDS011;2864;49.220;8.654;2023-02-01T01:26:08;7.80;;;3.90;;
5682;SDS011;2864;49.220;8.654;2023-02-01T01:28:35;7.27;;;3.73;;
5682;SDS011;2864;49.220;8.654;2023-02-01T01:31:01;7.10;;;4.00;;
5682;SDS011;2864;49.220;8.654;2023-02-01T01:33:27;6.97;;;4.30;;
5682;SDS011;2864;49.220;8.654;2023-02-01T01:35:53;4.97;;;4.00;;
5682;SDS011;2864;49.220;8.654;2023-02-01T01:38:19;6.97;;;4.17;;
5682;SDS011;2864;49.220;8.654;2023-02-01T01:40:46;6.37;;;4.20;;
5682;SDS011;2864;49.220;8.654;2023-02-01T01:43:13;7.60;;;4.10;;
5682;SDS011;2864;49.220;8.654;2023-02-01T01:45:40;8.97;;;4.13;;
5682;SDS011;2864;49.220;8.654;2023-02-01T01:48:18;6.50;;;4.27;;
5682;SDS011;2864;49.220;8.654;2023-02-01T01:50:48;5.50;;;4.03;;
5682;SDS011;2864;49.220;8.654;2023-02-01T01:53:18;8.03;;;4.00;;
5682;SDS011;2864;49.220;8.654;2023-02-01T01:55:47;4.77;;;4.00;;
5682;SDS011;2864;49.220;8.654;2023-02-01T01:58:16;4.63;;;3.83;;
5682;SDS011;2864;49.220;8.654;2023-02-01T02:00:44;7.90;;;4.10;;
5682;SDS011;2864;49.220;8.654;2023-02-01T02:05:39;7.03;;;4.03;;
5682;SDS011;2864;49.220;8.654;2023-02-01T02:08:05;6.80;;;4.00;;
5682;SDS011;2864;49.220;8.654;2023-02-01T02:10:31;6.67;;;4.07;;
5682;SDS011;2864;49.220;8.654;2023-02-01T02:13:16;7.87;;;4.80;;
5682;SDS011;2864;49.220;8.654;2023-02-01T02:15:45;6.37;;;3.97;;
5682;SDS011;2864;49.220;8.654;2023-02-01T02:21:09;7.00;;;3.83;;
5682;SDS011;2864;49.220;8.654;2023-02-01T02:23:47;5.50;;;3.73;;
5682;SDS011;2864;49.220;8.654;2023-02-01T02:39:38;3.97;;;3.27;;
5682;SDS011;2864;49.220;8.654;2023-02-01T02:42:23;4.33;;;3.80;;
5682;SDS011;2864;49.220;8.654;2023-02-01T02:48:15;5.53;;;3.90;;
5682;SDS011;2864;49.220;8.654;2023-02-01T02:53:55;5.90;;;3.70;;
5682;SDS011;2864;49.220;8.654;2023-02-01T02:56:40;6.87;;;3.93;;
5682;SDS011;2864;49.220;8.654;2023-02-01T02:59:25;5.23;;;3.10;;
5682;SDS011;2864;49.220;8.654;2023-02-01T03:02:11;3.90;;;3.10;;
5682;SDS011;2864;49.220;8.654;2023-02-01T03:04:56;4.83;;;3.43;;
5682;SDS011;2864;49.220;8.654;2023-02-01T03:10:08;5.27;;;3.70;;
5682;SDS011;2864;49.220;8.654;2023-02-01T03:12:40;3.37;;;2.90;;
5682;SDS011;2864;49.220;8.654;2023-02-01T03:15:20;5.63;;;3.93;;
5682;SDS011;2864;49.220;8.654;2023-02-01T03:17:51;5.23;;;4.13;;
5682;SDS011;2864;49.220;8.654;2023-02-01T03:20:20;6.80;;;3.80;;
5682;SDS011;2864;49.220;8.654;2023-02-01T03:26:11;4.53;;;3.63;;
5682;SDS011;2864;49.220;8.654;2023-02-01T03:28:41;5.50;;;3.93;;
5682;SDS011;2864;49.220;8.654;2023-02-01T03:31:14;4.83;;;3.83;;
5682;SDS011;2864;49.220;8.654;2023-02-01T03:33:40;4.43;;;3.13;;
5682;SDS011;2864;49.220;8.654;2023-02-01T03:38:49;5.40;;;3.60;;
5682;SDS011;2864;49.220;8.654;2023-02-01T03:41:33;4.03;;;3.57;;
5682;SDS011;2864;49.220;8.654;2023-02-01T03:46:34;4.93;;;3.50;;
5682;SDS011;2864;49.220;8.654;2023-02-01T03:49:05;6.33;;;3.57;;
5682;SDS011;2864;49.220;8.654;2023-02-01T03:51:32;6.73;;;3.33;;
5682;SDS011;2864;49.220;8.654;2023-02-01T03:53:59;5.30;;;3.53;;
5682;SDS011;2864;49.220;8.654;2023-02-01T03:56:27;5.10;;;4.07;;
5682;SDS011;2864;49.220;8.654;2023-02-01T03:58:54;6.47;;;3.40;;
5682;SDS011;2864;49.220;8.654;2023-02-01T04:01:24;3.90;;;2.83;;
5682;SDS011;2864;49.220;8.654;2023-02-01T04:03:51;5.60;;;3.60;;
5682;SDS011;2864;49.220;8.654;2023-02-01T04:06:17;7.97;;;3.20;;
5682;SDS011;2864;49.220;8.654;2023-02-01T04:08:42;5.47;;;3.30;;
5682;SDS011;2864;49.220;8.654;2023-02-01T04:11:08;5.43;;;3.30;;
5682;SDS011;2864;49.220;8.654;2023-02-01T04:13:34;7.17;;;4.13;;
5682;SDS011;2864;49.220;8.654;2023-02-01T04:16:00;6.87;;;3.47;;
5682;SDS011;2864;49.220;8.654;2023-02-01T04:18:26;5.77;;;3.67;;
5682;SDS011;2864;49.220;8.654;2023-02-01T04:20:52;5.87;;;3.60;;
5682;SDS011;2864;49.220;8.654;2023-02-01T04:23:18;5.63;;;4.17;;
5682;SDS011;2864;49.220;8.654;2023-02-01T04:25:44;6.83;;;3.87;;
5682;SDS011;2864;49.220;8.654;2023-02-01T04:28:10;7.17;;;3.70;;
5682;SDS011;2864;49.220;8.654;2023-02-01T04:30:36;4.73;;;3.53;;
5682;SDS011;2864;49.220;8.654;2023-02-01T04:33:02;6.73;;;3.73;;
5682;SDS011;2864;49.220;8.654;2023-02-01T04:35:31;5.80;;;3.37;;
5682;SDS011;2864;49.220;8.654;2023-02-01T04:37:56;4.97;;;3.30;;
5682;SDS011;2864;49.220;8.654;2023-02-01T04:40:22;6.73;;;3.47;;
5682;SDS011;2864;49.220;8.654;2023-02-01T04:42:48;5.73;;;3.37;;
5682;SDS011;2864;49.220;8.654;2023-02-01T04:45:14;5.17;;;3.77;;
5682;SDS011;2864;49.220;8.654;2023-02-01T04:47:40;3.67;;;3.37;;
5682;SDS011;2864;49.220;8.654;2023-02-01T04:50:06;5.43;;;3.30;;
5682;SDS011;2864;49.220;8.654;2023-02-01T04:52:35;5.67;;;3.70;;
5682;SDS011;2864;49.220;8.654;2023-02-01T04:55:01;4.93;;;3.00;;
5682;SDS011;2864;49.220;8.654;2023-02-01T04:57:28;6.23;;;3.40;;
5682;SDS011;2864;49.220;8.654;2023-02-01T04:59:55;2.93;;;2.63;;
5682;SDS011;2864;49.220;8.654;2023-02-01T05:02:21;3.70;;;2.90;;
5682;SDS011;2864;49.220;8.654;2023-02-01T05:04:47;3.90;;;2.83;;
5682;SDS011;2864;49.220;8.654;2023-02-01T05:07:13;4.90;;;3.10;;
5682;SDS011;2864;49.220;8.654;2023-02-01T05:09:39;5.57;;;3.53;;
5682;SDS011;2864;49.220;8.654;2023-02-01T05:12:05;4.13;;;3.10;;
5682;SDS011;2864;49.220;8.654;2023-02-01T05:14:50;4.97;;;3.40;;
5682;SDS011;2864;49.220;8.654;2023-02-01T05:17:16;5.73;;;3.17;;
5682;SDS011;2864;49.220;8.654;2023-02-01T05:19:42;4.53;;;3.60;;
5682;SDS011;2864;49.220;8.654;2023-02-01T05:22:08;6.97;;;4.10;;
5682;SDS011;2864;49.220;8.654;2023-02-01T05:24:34;6.40;;;3.70;;
5682;SDS011;2864;49.220;8.654;2023-02-01T05:27:00;5.53;;;3.80;;
5682;SDS011;2864;49.220;8.654;2023-02-01T05:29:26;8.23;;;4.73;;
5682;SDS011;2864;49.220;8.654;2023-02-01T05:31:52;5.77;;;4.00;;
5682;SDS011;2864;49.220;8.654;2023-02-01T05:34:18;4.57;;;3.53;;
5682;SDS011;2864;49.220;8.654;2023-02-01T05:36:44;6.20;;;3.80;;
5682;SDS011;2864;49.220;8.654;2023-02-01T05:39:10;3.77;;;3.30;;
5682;SDS011;2864;49.220;8.654;2023-02-01T05:41:36;5.83;;;3.90;;
5682;SDS011;2864;49.220;8.654;2023-02-01T05:44:02;4.17;;;3.50;;
5682;SDS011;2864;49.220;8.654;2023-02-01T05:46:28;4.83;;;4.03;;
5682;SDS011;2864;49.220;8.654;2023-02-01T05:48:54;3.77;;;3.30;;
5682;SDS011;2864;49.220;8.654;2023-02-01T05:51:20;4.07;;;3.43;;
5682;SDS011;2864;49.220;8.654;2023-02-01T05:53:46;5.03;;;4.10;;
5682;SDS011;2864;49.220;8.654;2023-02-01T05:56:12;6.10;;;4.63;;
5682;SDS011;2864;49.220;8.654;2023-02-01T05:58:38;6.13;;;4.13;;
5682;SDS011;2864;49.220;8.654;2023-02-01T06:01:04;6.17;;;4.40;;
5682;SDS011;2864;49.220;8.654;2023-02-01T06:03:30;10.93;;;5.73;;
5682;SDS011;2864;49.220;8.654;2023-02-01T06:05:56;10.50;;;4.67;;
5682;SDS011;2864;49.220;8.654;2023-02-01T06:08:22;4.87;;;3.70;;
5682;SDS011;2864;49.220;8.654;2023-02-01T06:10:56;9.63;;;5.30;;
5682;SDS011;2864;49.220;8.654;2023-02-01T06:15:51;8.63;;;5.20;;
5682;SDS011;2864;49.220;8.654;2023-02-01T06:18:17;6.97;;;4.63;;
5682;SDS011;2864;49.220;8.654;2023-02-01T06:20:43;6.33;;;4.60;;
5682;SDS011;2864;49.220;8.654;2023-02-01T06:23:09;7.63;;;5.20;;
5682;SDS011;2864;49.220;8.654;2023-02-01T06:25:35;8.43;;;5.50;;
5682;SDS011;2864;49.220;8.654;2023-02-01T06:28:02;8.23;;;4.93;;
5682;SDS011;2864;49.220;8.654;2023-02-01T06:30:30;7.40;;;5.40;;
5682;SDS011;2864;49.220;8.654;2023-02-01T06:32:56;7.33;;;5.20;;
5682;SDS011;2864;49.220;8.654;2023-02-01T06:35:22;8.07;;;5.20;;
5682;SDS011;2864;49.220;8.654;2023-02-01T06:37:48;8.47;;;6.13;;
5682;SDS011;2864;49.220;8.654;2023-02-01T06:40:14;8.37;;;4.50;;
5682;SDS011;2864;49.220;8.654;2023-02-01T06:42:40;9.03;;;6.07;;
5682;SDS011;2864;49.220;8.654;2023-02-01T06:45:07;10.00;;;5.67;;
5682;SDS011;2864;49.220;8.654;2023-02-01T06:47:33;10.00;;;5.50;;
5682;SDS011;2864;49.220;8.654;2023-02-01T06:49:59;9.83;;;5.90;;
5682;SDS011;2864;49.220;8.654;2023-02-01T06:52:25;11.13;;;6.90;;
5682;SDS011;2864;49.220;8.654;2023-02-01T06:54:51;8.57;;;6.00;;
5682;SDS011;2864;49.220;8.654;2023-02-01T06:57:17;12.37;;;5.60;;
5682;SDS011;2864;49.220;8.654;2023-02-01T06:59:43;12.77;;;5.90;;
5682;SDS011;2864;49.220;8.654;2023-02-01T07:02:10;11.03;;;6.27;;
5682;SDS011;2864;49.220;8.654;2023-02-01T07:04:36;14.37;;;5.73;;
5682;SDS011;2864;49.220;8.654;2023-02-01T07:07:05;12.07;;;5.80;;
5682;SDS011;2864;49.220;8.654;2023-02-01T07:09:31;8.80;;;5.83;;
5682;SDS011;2864;49.220;8.654;2023-02-01T07:11:57;11.83;;;5.90;;
5682;SDS011;2864;49.220;8.654;2023-02-01T07:14:23;9.03;;;5.80;;
5682;SDS011;2864;49.220;8.654;2023-02-01T07:16:49;8.33;;;4.83;;
5682;SDS011;2864;49.220;8.654;2023-02-01T07:19:15;6.20;;;4.80;;
5682;SDS011;2864;49.220;8.654;2023-02-01T07:21:41;8.47;;;5.23;;
5682;SDS011;2864;49.220;8.654;2023-02-01T07:24:07;6.43;;;5.20;;
5682;SDS011;2864;49.220;8.654;2023-02-01T07:26:33;7.57;;;5.23;;
5682;SDS011;2864;49.220;8.654;2023-02-01T07:28:59;11.53;;;5.73;;
5682;SDS011;2864;49.220;8.654;2023-02-01T07:31:25;12.17;;;5.43;;
5682;SDS011;2864;49.220;8.654;2023-02-01T07:33:53;13.10;;;6.20;;
5682;SDS011;2864;49.220;8.654;2023-02-01T07:36:21;12.73;;;5.80;;
5682;SDS011;2864;49.220;8.654;2023-02-01T07:38:47;11.50;;;6.40;;
5682;SDS011;2864;49.220;8.654;2023-02-01T07:41:13;10.43;;;6.43;;
5682;SDS011;2864;49.220;8.654;2023-02-01T07:43:40;9.83;;;5.97;;
5682;SDS011;2864;49.220;8.654;2023-02-01T07:46:06;10.60;;;5.80;;
5682;SDS011;2864;49.220;8.654;2023-02-01T07:48:32;14.63;;;6.37;;
5682;SDS011;2864;49.220;8.654;2023-02-01T07:53:25;9.77;;;6.60;;
5682;SDS011;2864;49.220;8.654;2023-02-01T07:55:51;11.20;;;5.70;;
5682;SDS011;2864;49.220;8.654;2023-02-01T07:58:17;13.20;;;6.37;;
5682;SDS011;2864;49.220;8.654;2023-02-01T08:00:43;11.33;;;5.50;;
5682;SDS011;2864;49.220;8.654;2023-02-01T08:03:27;10.13;;;6.00;;
5682;SDS011;2864;49.220;8.654;2023-02-01T08:05:54;9.87;;;6.63;;
5682;SDS011;2864;49.220;8.654;2023-02-01T08:08:20;11.13;;;6.40;;
5682;SDS011;2864;49.220;8.654;2023-02-01T08:10:46;13.20;;;5.63;;
5682;SDS011;2864;49.220;8.654;2023-02-01T08:13:12;9.50;;;6.03;;
5682;SDS011;2864;49.220;8.654;2023-02-01T08:15:38;11.00;;;5.97;;
5682;SDS011;2864;49.220;8.654;2023-02-01T08:18:04;10.53;;;6.07;;
5682;SDS011;2864;49.220;8.654;2023-02-01T08:20:30;11.47;;;5.47;;
5682;SDS011;2864;49.220;8.654;2023-02-01T08:22:59;9.07;;;5.27;;
5682;SDS011;2864;49.220;8.654;2023-02-01T08:25:25;8.53;;;5.77;;
5682;SDS011;2864;49.220;8.654;2023-02-01T08:27:52;8.40;;;4.93;;
5682;SDS011;2864;49.220;8.654;2023-02-01T08:30:19;13.13;;;5.10;;
5682;SDS011;2864;49.220;8.654;2023-02-01T08:32:45;12.67;;;5.53;;
5682;SDS011;2864;49.220;8.654;2023-02-01T08:35:11;9.10;;;4.77;;
5682;SDS011;2864;49.220;8.654;2023-02-01T08:37:37;11.30;;;5.63;;
5682;SDS011;2864;49.220;8.654;2023-02-01T08:40:03;11.43;;;5.40;;
5682;SDS011;2864;49.220;8.654;2023-02-01T08:42:30;9.20;;;4.87;;
5682;SDS011;2864;49.220;8.654;2023-02-01T08:45:15;12.50;;;5.27;;
5682;SDS011;2864;49.220;8.654;2023-02-01T08:47:41;10.30;;;5.30;;
5682;SDS011;2864;49.220;8.654;2023-02-01T08:50:07;8.53;;;4.43;;
5682;SDS011;2864;49.220;8.654;2023-02-01T08:52:34;12.03;;;5.50;;
5682;SDS011;2864;49.220;8.654;2023-02-01T08:55:00;10.87;;;5.20;;
5682;SDS011;2864;49.220;8.654;2023-02-01T08:57:26;12.07;;;4.97;;
5682;SDS011;2864;49.220;8.654;2023-02-01T08:59:52;12.03;;;4.27;;
5682;SDS011;2864;49.220;8.654;2023-02-01T09:02:18;14.10;;;4.47;;
5682;SDS011;2864;49.220;8.654;2023-02-01T09:04:44;14.50;;;4.60;;
5682;SDS011;2864;49.220;8.654;2023-02-01T09:07:10;8.67;;;3.77;;
5682;SDS011;2864;49.220;8.654;2023-02-01T09:09:38;9.87;;;3.80;;
5682;SDS011;2864;49.220;8.654;2023-02-01T09:12:04;11.97;;;4.40;;
5682;SDS011;2864;49.220;8.654;2023-02-01T09:14:30;8.80;;;4.10;;
5682;SDS011;2864;49.220;8.654;2023-02-01T09:16:56;10.23;;;4.27;;
5682;SDS011;2864;49.220;8.654;2023-02-01T09:19:22;7.00;;;4.00;;
5682;SDS011;2864;49.220;8.654;2023-02-01T09:21:48;8.60;;;3.97;;
5682;SDS011;2864;49.220;8.654;2023-02-01T09:24:15;8.97;;;3.70;;
5682;SDS011;2864;49.220;8.654;2023-02-01T09:26:41;9.47;;;3.93;;
5682;SDS011;2864;49.220;8.654;2023-02-01T09:29:07;12.73;;;4.63;;
5682;SDS011;2864;49.220;8.654;2023-02-01T09:31:36;8.03;;;4.33;;
5682;SDS011;2864;49.220;8.654;2023-02-01T09:34:03;14.23;;;4.27;;
5682;SDS011;2864;49.220;8.654;2023-02-01T09:36:29;13.30;;;4.47;;
5682;SDS011;2864;49.220;8.654;2023-02-01T09:38:55;13.17;;;4.00;;
5682;SDS011;2864;49.220;8.654;2023-02-01T09:46:39;11.23;;;4.20;;
5682;SDS011;2864;49.220;8.654;2023-02-01T09:49:08;8.13;;;3.50;;
5682;SDS011;2864;49.220;8.654;2023-02-01T09:51:43;11.17;;;4.00;;
5682;SDS011;2864;49.220;8.654;2023-02-01T09:54:25;10.13;;;3.90;;
5682;SDS011;2864;49.220;8.654;2023-02-01T09:57:08;12.40;;;3.50;;
5682;SDS011;2864;49.220;8.654;2023-02-01T10:02:01;12.83;;;4.00;;
5682;SDS011;2864;49.220;8.654;2023-02-01T10:04:29;9.83;;;3.47;;
5682;SDS011;2864;49.220;8.654;2023-02-01T10:07:04;10.17;;;3.80;;
5682;SDS011;2864;49.220;8.654;2023-02-01T10:09:42;9.43;;;3.67;;
5682;SDS011;2864;49.220;8.654;2023-02-01T10:14:47;10.90;;;3.60;;
5682;SDS011;2864;49.220;8.654;2023-02-01T10:25:17;18.60;;;3.83;;
5682;SDS011;2864;49.220;8.654;2023-02-01T10:27:53;12.97;;;3.97;;
5682;SDS011;2864;49.220;8.654;2023-02-01T10:30:23;11.20;;;3.23;;
5682;SDS011;2864;49.220;8.654;2023-02-01T10:32:51;10.17;;;3.00;;
5682;SDS011;2864;49.220;8.654;2023-02-01T10:35:31;7.80;;;3.10;;
5682;SDS011;2864;49.220;8.654;2023-02-01T10:38:00;12.03;;;3.50;;
5682;SDS011;2864;49.220;8.654;2023-02-01T10:40:27;9.17;;;3.13;;
5682;SDS011;2864;49.220;8.654;2023-02-01T10:42:54;10.07;;;3.50;;
5682;SDS011;2864;49.220;8.654;2023-02-01T10:45:22;11.07;;;3.63;;
5682;SDS011;2864;49.220;8.654;2023-02-01T10:47:51;9.23;;;2.90;;
5682;SDS011;2864;49.220;8.654;2023-02-01T10:53:12;11.70;;;3.83;;
5682;SDS011;2864;49.220;8.654;2023-02-01T10:55:40;12.37;;;3.70;;
5682;SDS011;2864;49.220;8.654;2023-02-01T10:58:13;9.63;;;3.20;;
5682;SDS011;2864;49.220;8.654;2023-02-01T11:03:32;11.27;;;3.60;;
5682;SDS011;2864;49.220;8.654;2023-02-01T11:05:58;15.63;;;3.60;;
5682;SDS011;2864;49.220;8.654;2023-02-01T11:08:25;15.43;;;3.97;;
5682;SDS011;2864;49.220;8.654;2023-02-01T11:11:01;15.73;;;3.67;;
5682;SDS011;2864;49.220;8.654;2023-02-01T11:13:31;6.73;;;2.97;;
5682;SDS011;2864;49.220;8.654;2023-02-01T11:16:01;10.90;;;3.37;;
5682;SDS011;2864;49.220;8.654;2023-02-01T11:18:28;10.70;;;3.43;;
5682;SDS011;2864;49.220;8.654;2023-02-01T11:20:55;9.67;;;3.70;;
5682;SDS011;2864;49.220;8.654;2023-02-01T11:23:22;11.37;;;3.57;;
5682;SDS011;2864;49.220;8.654;2023-02-01T11:25:49;12.83;;;3.60;;
5682;SDS011;2864;49.220;8.654;2023-02-01T11:28:17;11.70;;;3.77;;
5682;SDS011;2864;49.220;8.654;2023-02-01T11:30:44;9.20;;;3.50;;
5682;SDS011;2864;49.220;8.654;2023-02-01T11:33:13;15.97;;;3.60;;
5682;SDS011;2864;49.220;8.654;2023-02-01T11:35:39;14.13;;;3.33;;
5682;SDS011;2864;49.220;8.654;2023-02-01T11:38:18;8.90;;;3.33;;
5682;SDS011;2864;49.220;8.654;2023-02-01T11:40:45;16.40;;;3.47;;
5682;SDS011;2864;49.220;8.654;2023-02-01T11:45:53;16.57;;;3.63;;
5682;SDS011;2864;49.220;8.654;2023-02-01T11:48:20;14.37;;;3.77;;
5682;SDS011;2864;49.220;8.654;2023-02-01T11:53:20;11.90;;;3.40;;
5682;SDS011;2864;49.220;8.654;2023-02-01T11:58:50;10.67;;;4.03;;
5682;SDS011;2864;49.220;8.654;2023-02-01T12:21:42;12.73;;;3.20;;
5682;SDS011;2864;49.220;8.654;2023-02-01T12:26:50;10.30;;;3.57;;
5682;SDS011;2864;49.220;8.654;2023-02-01T12:32:09;15.83;;;3.70;;
5682;SDS011;2864;49.220;8.654;2023-02-01T12:40:45;14.03;;;3.23;;
5682;SDS011;2864;49.220;8.654;2023-02-01T12:43:18;15.80;;;3.77;;
5682;SDS011;2864;49.220;8.654;2023-02-01T12:45:55;13.73;;;3.83;;
5682;SDS011;2864;49.220;8.654;2023-02-01T12:48:32;11.67;;;3.20;;
5682;SDS011;2864;49.220;8.654;2023-02-01T12:51:07;8.20;;;2.77;;
5682;SDS011;2864;49.220;8.654;2023-02-01T12:56:06;12.60;;;3.00;;
5682;SDS011;2864;49.220;8.654;2023-02-01T12:58:52;8.50;;;3.37;;
5682;SDS011;2864;49.220;8.654;2023-02-01T13:11:37;10.30;;;3.03;;
5682;SDS011;2864;49.220;8.654;2023-02-01T13:14:05;11.13;;;2.80;;
5682;SDS011;2864;49.220;8.654;2023-02-01T13:16:49;10.60;;;3.37;;
5682;SDS011;2864;49.220;8.654;2023-02-01T13:21:45;11.33;;;2.83;;
5682;SDS011;2864;49.220;8.654;2023-02-01T13:24:19;9.47;;;2.50;;
5682;SDS011;2864;49.220;8.654;2023-02-01T13:26:46;10.30;;;2.80;;
5682;SDS011;2864;49.220;8.654;2023-02-01T13:29:12;6.70;;;2.60;;
5682;SDS011;2864;49.220;8.654;2023-02-01T13:37:22;8.90;;;2.90;;
5682;SDS011;2864;49.220;8.654;2023-02-01T13:42:25;7.53;;;2.50;;
5682;SDS011;2864;49.220;8.654;2023-02-01T13:45:02;9.70;;;2.73;;
5682;SDS011;2864;49.220;8.654;2023-02-01T13:47:38;13.10;;;3.00;;
5682;SDS011;2864;49.220;8.654;2023-02-01T13:52:43;10.57;;;2.80;;
5682;SDS011;2864;49.220;8.654;2023-02-01T13:57:39;12.97;;;3.27;;
5682;SDS011;2864;49.220;8.654;2023-02-01T14:13:38;13.03;;;3.30;;
5682;SDS011;2864;49.220;8.654;2023-02-01T14:23:41;13.53;;;3.90;;
5682;SDS011;2864;49.220;8.654;2023-02-01T14:26:09;15.73;;;3.23;;
5682;SDS011;2864;49.220;8.654;2023-02-01T14:28:37;13.63;;;4.00;;
5682;SDS011;2864;49.220;8.654;2023-02-01T14:31:13;11.57;;;3.00;;
5682;SDS011;2864;49.220;8.654;2023-02-01T14:33:41;14.13;;;3.38;;
5682;SDS011;2864;49.220;8.654;2023-02-01T14:36:09;7.43;;;2.80;;
5682;SDS011;2864;49.220;8.654;2023-02-01T14:38:37;10.37;;;2.33;;
5682;SDS011;2864;49.220;8.654;2023-02-01T14:43:50;11.07;;;2.80;;
5682;SDS011;2864;49.220;8.654;2023-02-01T14:46:16;9.57;;;3.03;;
5682;SDS011;2864;49.220;8.654;2023-02-01T14:48:43;12.13;;;3.30;;
5682;SDS011;2864;49.220;8.654;2023-02-01T14:51:11;10.67;;;2.90;;
5682;SDS011;2864;49.220;8.654;2023-02-01T14:53:39;8.27;;;2.60;;
5682;SDS011;2864;49.220;8.654;2023-02-01T14:56:08;11.20;;;3.53;;
5682;SDS011;2864;49.220;8.654;2023-02-01T15:01:05;13.37;;;3.10;;
5682;SDS011;2864;49.220;8.654;2023-02-01T15:06:13;15.23;;;3.20;;
5682;SDS011;2864;49.220;8.654;2023-02-01T15:08:39;13.37;;;2.97;;
5682;SDS011;2864;49.220;8.654;2023-02-01T15:11:06;12.03;;;3.17;;
5682;SDS011;2864;49.220;8.654;2023-02-01T15:13:35;11.70;;;2.70;;
5682;SDS011;2864;49.220;8.654;2023-02-01T15:18:28;9.63;;;3.23;;
5682;SDS011;2864;49.220;8.654;2023-02-01T15:20:58;11.93;;;3.50;;
5682;SDS011;2864;49.220;8.654;2023-02-01T15:23:24;14.50;;;3.90;;
5682;SDS011;2864;49.220;8.654;2023-02-01T15:25:50;8.93;;;3.00;;
5682;SDS011;2864;49.220;8.654;2023-02-01T15:28:16;13.93;;;3.30;;
5682;SDS011;2864;49.220;8.654;2023-02-01T15:33:18;12.73;;;4.00;;
5682;SDS011;2864;49.220;8.654;2023-02-01T15:38:40;9.37;;;3.13;;
5682;SDS011;2864;49.220;8.654;2023-02-01T15:41:19;8.70;;;2.90;;
5682;SDS011;2864;49.220;8.654;2023-02-01T15:46:39;12.87;;;2.70;;
5682;SDS011;2864;49.220;8.654;2023-02-01T15:51:52;11.07;;;3.07;;
5682;SDS011;2864;49.220;8.654;2023-02-01T15:54:39;9.63;;;2.73;;
5682;SDS011;2864;49.220;8.654;2023-02-01T15:57:07;15.17;;;3.60;;
5682;SDS011;2864;49.220;8.654;2023-02-01T15:59:36;9.33;;;2.90;;
5682;SDS011;2864;49.220;8.654;2023-02-01T16:02:03;9.00;;;3.13;;
5682;SDS011;2864;49.220;8.654;2023-02-01T16:04:29;11.60;;;3.53;;
5682;SDS011;2864;49.220;8.654;2023-02-01T16:06:57;11.20;;;2.60;;
5682;SDS011;2864;49.220;8.654;2023-02-01T16:09:35;10.17;;;3.20;;
5682;SDS011;2864;49.220;8.654;2023-02-01T16:12:02;12.90;;;3.27;;
5682;SDS011;2864;49.220;8.654;2023-02-01T16:14:29;9.63;;;2.97;;
5682;SDS011;2864;49.220;8.654;2023-02-01T16:16:57;8.53;;;3.07;;
5682;SDS011;2864;49.220;8.654;2023-02-01T16:19:23;11.43;;;3.20;;
5682;SDS011;2864;49.220;8.654;2023-02-01T16:21:53;12.60;;;3.20;;
5682;SDS011;2864;49.220;8.654;2023-02-01T16:24:20;9.57;;;3.33;;
5682;SDS011;2864;49.220;8.654;2023-02-01T16:26:48;8.50;;;3.47;;
5682;SDS011;2864;49.220;8.654;2023-02-01T16:29:14;12.87;;;3.00;;
5682;SDS011;2864;49.220;8.654;2023-02-01T16:31:41;9.13;;;2.77;;
5682;SDS011;2864;49.220;8.654;2023-02-01T16:36:38;12.03;;;3.70;;
5682;SDS011;2864;49.220;8.654;2023-02-01T16:39:04;8.13;;;2.90;;
5682;SDS011;2864;49.220;8.654;2023-02-01T16:41:32;12.97;;;3.20;;
5682;SDS011;2864;49.220;8.654;2023-02-01T16:43:58;13.37;;;3.13;;
5682;SDS011;2864;49.220;8.654;2023-02-01T16:46:25;11.77;;;3.13;;
5682;SDS011;2864;49.220;8.654;2023-02-01T16:48:52;11.73;;;3.30;;
5682;SDS011;2864;49.220;8.654;2023-02-01T16:51:19;15.03;;;3.50;;
5682;SDS011;2864;49.220;8.654;2023-02-01T16:53:45;14.67;;;3.03;;
5682;SDS011;2864;49.220;8.654;2023-02-01T16:58:40;16.43;;;3.77;;
5682;SDS011;2864;49.220;8.654;2023-02-01T17:01:08;12.13;;;2.90;;
5682;SDS011;2864;49.220;8.654;2023-02-01T17:03:34;10.20;;;2.97;;
5682;SDS011;2864;49.220;8.654;2023-02-01T17:06:00;10.60;;;2.90;;
5682;SDS011;2864;49.220;8.654;2023-02-01T17:08:28;14.80;;;3.33;;
5682;SDS011;2864;49.220;8.654;2023-02-01T17:10:55;11.43;;;2.93;;
5682;SDS011;2864;49.220;8.654;2023-02-01T17:13:21;9.27;;;3.03;;
5682;SDS011;2864;49.220;8.654;2023-02-01T17:15:54;12.67;;;3.60;;
5682;SDS011;2864;49.220;8.654;2023-02-01T17:18:23;11.17;;;2.87;;
5682;SDS011;2864;49.220;8.654;2023-02-01T17:20:50;14.73;;;3.40;;
5682;SDS011;2864;49.220;8.654;2023-02-01T17:23:17;12.27;;;2.87;;
5682;SDS011;2864;49.220;8.654;2023-02-01T17:25:44;12.77;;;3.20;;
5682;SDS011;2864;49.220;8.654;2023-02-01T17:28:10;12.73;;;4.03;;
5682;SDS011;2864;49.220;8.654;2023-02-01T17:30:37;17.33;;;3.40;;
5682;SDS011;2864;49.220;8.654;2023-02-01T17:33:03;10.07;;;3.20;;
5682;SDS011;2864;49.220;8.654;2023-02-01T17:35:29;9.63;;;3.30;;
5682;SDS011;2864;49.220;8.654;2023-02-01T17:37:56;8.33;;;3.17;;
5682;SDS011;2864;49.220;8.654;2023-02-01T17:40:22;11.27;;;3.43;;
5682;SDS011;2864;49.220;8.654;2023-02-01T17:42:48;12.37;;;3.20;;
5682;SDS011;2864;49.220;8.654;2023-02-01T17:45:21;14.30;;;3.40;;
5682;SDS011;2864;49.220;8.654;2023-02-01T17:47:57;15.23;;;3.03;;
5682;SDS011;2864;49.220;8.654;2023-02-01T17:50:23;13.00;;;3.10;;
5682;SDS011;2864;49.220;8.654;2023-02-01T17:52:52;7.67;;;2.53;;
5682;SDS011;2864;49.220;8.654;2023-02-01T17:55:19;13.53;;;3.70;;
5682;SDS011;2864;49.220;8.654;2023-02-01T17:57:47;13.50;;;3.30;;
5682;SDS011;2864;49.220;8.654;2023-02-01T18:00:13;13.87;;;2.73;;
5682;SDS011;2864;49.220;8.654;2023-02-01T18:02:39;13.80;;;3.30;;
5682;SDS011;2864;49.220;8.654;2023-02-01T18:05:13;13.17;;;3.40;;
5682;SDS011;2864;49.220;8.654;2023-02-01T18:07:39;12.17;;;3.63;;
5682;SDS011;2864;49.220;8.654;2023-02-01T18:10:05;10.47;;;3.47;;
5682;SDS011;2864;49.220;8.654;2023-02-01T18:12:31;11.43;;;2.90;;
5682;SDS011;2864;49.220;8.654;2023-02-01T18:17:28;11.00;;;2.97;;
5682;SDS011;2864;49.220;8.654;2023-02-01T18:19:54;7.27;;;2.73;;